sensor_id;sensor_type;location;lat;lon;timestamp;pressure;altitude;pressure_sealevel;temperature
41593;BMP180;28026;48.562;14.440;2024-01-06T00:00:26;92376.00;;;12.10
41593;BMP180;28026;48.562;14.440;2024-01-06T00:02:57;92385.00;;;12.10
41593;BMP180;28026;48.562;14.440;2024-01-06T00:05:28;92390.00;;;12.00
41593;BMP180;28026;48.562;14.440;2024-01-06T00:07:58;92393.00;;;12.00
41593;BMP180;28026;48.562;14.440;2024-01-06T00:10:29;92402.00;;;12.00
41593;BMP180;28026;48.562;14.440;2024-01-06T00:13:00;92398.00;;;11.90
41593;BMP180;28026;48.562;14.440;2024-01-06T00:15:31;92395.00;;;11.90
41593;BMP180;28026;48.562;14.440;2024-01-06T00:18:02;92372.00;;;11.90
41593;BMP180;28026;48.562;14.440;2024-01-06T00:20:33;92375.00;;;11.80
41593;BMP180;28026;48.562;14.440;2024-01-06T00:23:04;92383.00;;;11.80
41593;BMP180;28026;48.562;14.440;2024-01-06T00:25:35;92370.00;;;11.80
41593;BMP180;28026;48.562;14.440;2024-01-06T00:28:06;92375.00;;;11.80
41593;BMP180;28026;48.562;14.440;2024-01-06T00:30:37;92375.00;;;11.80
41593;BMP180;28026;48.562;14.440;2024-01-06T00:33:08;92394.00;;;11.80
41593;BMP180;28026;48.562;14.440;2024-01-06T00:35:39;92404.00;;;11.70
41593;BMP180;28026;48.562;14.440;2024-01-06T00:38:11;92389.00;;;11.60
41593;BMP180;28026;48.562;14.440;2024-01-06T00:40:42;92396.00;;;11.50
41593;BMP180;28026;48.562;14.440;2024-01-06T00:43:12;92415.00;;;11.50
41593;BMP180;28026;48.562;14.440;2024-01-06T00:45:43;92410.00;;;11.50
41593;BMP180;28026;48.562;14.440;2024-01-06T00:48:15;92405.00;;;11.50
41593;BMP180;28026;48.562;14.440;2024-01-06T00:50:46;92396.00;;;11.50
41593;BMP180;28026;48.562;14.440;2024-01-06T00:53:17;92415.00;;;11.50
41593;BMP180;28026;48.562;14.440;2024-01-06T00:55:48;92426.00;;;11.60
41593;BMP180;28026;48.562;14.440;2024-01-06T00:58:19;92422.00;;;11.50
41593;BMP180;28026;48.562;14.440;2024-01-06T01:00:50;92415.00;;;11.40
41593;BMP180;28026;48.562;14.440;2024-01-06T01:03:20;92420.00;;;11.40
41593;BMP180;28026;48.562;14.440;2024-01-06T01:05:51;92412.00;;;11.40
41593;BMP180;28026;48.562;14.440;2024-01-06T01:08:22;92415.00;;;11.40
41593;BMP180;28026;48.562;14.440;2024-01-06T01:10:53;92414.00;;;11.40
41593;BMP180;28026;48.562;14.440;2024-01-06T01:13:24;92409.00;;;11.40
41593;BMP180;28026;48.562;14.440;2024-01-06T01:15:55;92409.00;;;11.40
41593;BMP180;28026;48.562;14.440;2024-01-06T01:18:26;92399.00;;;11.40
41593;BMP180;28026;48.562;14.440;2024-01-06T01:20:57;92409.00;;;11.40
41593;BMP180;28026;48.562;14.440;2024-01-06T01:23:28;92425.00;;;11.50
41593;BMP180;28026;48.562;14.440;2024-01-06T01:25:59;92426.00;;;11.40
41593;BMP180;28026;48.562;14.440;2024-01-06T01:28:29;92431.00;;;11.40
41593;BMP180;28026;48.562;14.440;2024-01-06T01:31:00;92440.00;;;11.40
41593;BMP180;28026;48.562;14.440;2024-01-06T01:33:31;92437.00;;;11.40
41593;BMP180;28026;48.562;14.440;2024-01-06T01:36:02;92425.00;;;11.40
41593;BMP180;28026;48.562;14.440;2024-01-06T01:38:33;92432.00;;;11.50
41593;BMP180;28026;48.562;14.440;2024-01-06T01:41:04;92427.00;;;11.50
41593;BMP180;28026;48.562;14.440;2024-01-06T01:43:35;92416.00;;;11.50
41593;BMP180;28026;48.562;14.440;2024-01-06T01:46:06;92424.00;;;11.50
41593;BMP180;28026;48.562;14.440;2024-01-06T01:48:37;92417.00;;;11.50
41593;BMP180;28026;48.562;14.440;2024-01-06T01:51:09;92415.00;;;11.50
41593;BMP180;28026;48.562;14.440;2024-01-06T01:53:41;92411.00;;;11.50
41593;BMP180;28026;48.562;14.440;2024-01-06T01:56:13;92410.00;;;11.50
41593;BMP180;28026;48.562;14.440;2024-01-06T01:58:44;92411.00;;;11.50
41593;BMP180;28026;48.562;14.440;2024-01-06T02:01:17;92398.00;;;11.50
41593;BMP180;28026;48.562;14.440;2024-01-06T02:03:48;92398.00;;;11.50
41593;BMP180;28026;48.562;14.440;2024-01-06T02:06:18;92403.00;;;11.50
41593;BMP180;28026;48.562;14.440;2024-01-06T02:08:49;92395.00;;;11.50
41593;BMP180;28026;48.562;14.440;2024-01-06T02:11:20;92398.00;;;11.50
41593;BMP180;28026;48.562;14.440;2024-01-06T02:13:51;92401.00;;;11.50
41593;BMP180;28026;48.562;14.440;2024-01-06T02:16:22;92400.00;;;11.50
41593;BMP180;28026;48.562;14.440;2024-01-06T02:18:53;92395.00;;;11.60
41593;BMP180;28026;48.562;14.440;2024-01-06T02:21:27;92392.00;;;11.50
41593;BMP180;28026;48.562;14.440;2024-01-06T02:23:59;92395.00;;;11.50
41593;BMP180;28026;48.562;14.440;2024-01-06T02:26:30;92390.00;;;11.50
41593;BMP180;28026;48.562;14.440;2024-01-06T02:29:01;92390.00;;;11.50
41593;BMP180;28026;48.562;14.440;2024-01-06T02:31:32;92396.00;;;11.50
41593;BMP180;28026;48.562;14.440;2024-01-06T02:34:02;92387.00;;;11.50
41593;BMP180;28026;48.562;14.440;2024-01-06T02:36:33;92394.00;;;11.50
41593;BMP180;28026;48.562;14.440;2024-01-06T02:39:04;92402.00;;;11.50
41593;BMP180;28026;48.562;14.440;2024-01-06T02:41:35;92400.00;;;11.50
41593;BMP180;28026;48.562;14.440;2024-01-06T02:44:06;92393.00;;;11.50
41593;BMP180;28026;48.562;14.440;2024-01-06T02:46:39;92395.00;;;11.50
41593;BMP180;28026;48.562;14.440;2024-01-06T02:49:10;92392.00;;;11.50
41593;BMP180;28026;48.562;14.440;2024-01-06T02:51:41;92392.00;;;11.50
41593;BMP180;28026;48.562;14.440;2024-01-06T02:54:11;92394.00;;;11.50
41593;BMP180;28026;48.562;14.440;2024-01-06T02:56:42;92389.00;;;11.50
41593;BMP180;28026;48.562;14.440;2024-01-06T02:59:13;92377.00;;;11.50
41593;BMP180;28026;48.562;14.440;2024-01-06T03:01:44;92377.00;;;11.50
41593;BMP180;28026;48.562;14.440;2024-01-06T03:04:15;92367.00;;;11.50
41593;BMP180;28026;48.562;14.440;2024-01-06T03:06:46;92370.00;;;11.40
41593;BMP180;28026;48.562;14.440;2024-01-06T03:09:22;92372.00;;;11.40
41593;BMP180;28026;48.562;14.440;2024-01-06T03:11:53;92354.00;;;11.40
41593;BMP180;28026;48.562;14.440;2024-01-06T03:14:24;92353.00;;;11.40
41593;BMP180;28026;48.562;14.440;2024-01-06T03:16:55;92350.00;;;11.30
41593;BMP180;28026;48.562;14.440;2024-01-06T03:19:26;92345.00;;;11.30
41593;BMP180;28026;48.562;14.440;2024-01-06T03:21:57;92355.00;;;11.30
41593;BMP180;28026;48.562;14.440;2024-01-06T03:24:28;92355.00;;;11.30
41593;BMP180;28026;48.562;14.440;2024-01-06T03:26:59;92355.00;;;11.30
41593;BMP180;28026;48.562;14.440;2024-01-06T03:29:30;92354.00;;;11.30
41593;BMP180;28026;48.562;14.440;2024-01-06T03:32:01;92347.00;;;11.20
41593;BMP180;28026;48.562;14.440;2024-01-06T03:34:32;92341.00;;;11.20
41593;BMP180;28026;48.562;14.440;2024-01-06T03:37:03;92343.00;;;11.20
41593;BMP180;28026;48.562;14.440;2024-01-06T03:39:34;92341.00;;;11.20
41593;BMP180;28026;48.562;14.440;2024-01-06T03:42:05;92340.00;;;11.10
41593;BMP180;28026;48.562;14.440;2024-01-06T03:44:36;92349.00;;;11.10
41593;BMP180;28026;48.562;14.440;2024-01-06T03:47:07;92347.00;;;11.10
41593;BMP180;28026;48.562;14.440;2024-01-06T03:49:38;92343.00;;;11.10
41593;BMP180;28026;48.562;14.440;2024-01-06T03:52:09;92341.00;;;11.10
41593;BMP180;28026;48.562;14.440;2024-01-06T03:54:40;92345.00;;;11.10
41593;BMP180;28026;48.562;14.440;2024-01-06T03:57:11;92339.00;;;11.10
41593;BMP180;28026;48.562;14.440;2024-01-06T03:59:42;92333.00;;;11.10
41593;BMP180;28026;48.562;14.440;2024-01-06T04:02:13;92341.00;;;11.10
41593;BMP180;28026;48.562;14.440;2024-01-06T04:04:44;92339.00;;;11.10
41593;BMP180;28026;48.562;14.440;2024-01-06T04:07:15;92340.00;;;11.00
41593;BMP180;28026;48.562;14.440;2024-01-06T04:09:46;92347.00;;;11.00
41593;BMP180;28026;48.562;14.440;2024-01-06T04:12:17;92338.00;;;11.00
41593;BMP180;28026;48.562;14.440;2024-01-06T04:14:48;92345.00;;;11.00
41593;BMP180;28026;48.562;14.440;2024-01-06T04:17:19;92345.00;;;11.00
41593;BMP180;28026;48.562;14.440;2024-01-06T04:19:50;92342.00;;;11.00
41593;BMP180;28026;48.562;14.440;2024-01-06T04:22:21;92347.00;;;11.00
41593;BMP180;28026;48.562;14.440;2024-01-06T04:24:52;92356.00;;;11.10
41593;BMP180;28026;48.562;14.440;2024-01-06T04:27:23;92350.00;;;11.10
41593;BMP180;28026;48.562;14.440;2024-01-06T04:29:54;92361.00;;;11.10
41593;BMP180;28026;48.562;14.440;2024-01-06T04:32:25;92372.00;;;11.10
41593;BMP180;28026;48.562;14.440;2024-01-06T04:34:56;92376.00;;;11.10
41593;BMP180;28026;48.562;14.440;2024-01-06T04:37:27;92355.00;;;11.10
41593;BMP180;28026;48.562;14.440;2024-01-06T04:39:59;92359.00;;;11.10
41593;BMP180;28026;48.562;14.440;2024-01-06T04:42:30;92370.00;;;11.10
41593;BMP180;28026;48.562;14.440;2024-01-06T04:45:01;92369.00;;;11.10
41593;BMP180;28026;48.562;14.440;2024-01-06T04:47:32;92371.00;;;11.10
41593;BMP180;28026;48.562;14.440;2024-01-06T04:50:03;92372.00;;;11.20
41593;BMP180;28026;48.562;14.440;2024-01-06T04:52:34;92375.00;;;11.20
41593;BMP180;28026;48.562;14.440;2024-01-06T04:55:05;92373.00;;;11.20
41593;BMP180;28026;48.562;14.440;2024-01-06T04:57:39;92371.00;;;11.20
41593;BMP180;28026;48.562;14.440;2024-01-06T05:00:10;92378.00;;;11.20
41593;BMP180;28026;48.562;14.440;2024-01-06T05:02:43;92384.00;;;11.10
41593;BMP180;28026;48.562;14.440;2024-01-06T05:05:14;92382.00;;;11.20
41593;BMP180;28026;48.562;14.440;2024-01-06T05:07:45;92384.00;;;11.10
41593;BMP180;28026;48.562;14.440;2024-01-06T05:10:16;92383.00;;;11.20
41593;BMP180;28026;48.562;14.440;2024-01-06T05:12:47;92386.00;;;11.20
41593;BMP180;28026;48.562;14.440;2024-01-06T05:15:18;92393.00;;;11.20
41593;BMP180;28026;48.562;14.440;2024-01-06T05:17:49;92393.00;;;11.20
41593;BMP180;28026;48.562;14.440;2024-01-06T05:20:20;92387.00;;;11.20
41593;BMP180;28026;48.562;14.440;2024-01-06T05:22:51;92390.00;;;11.10
41593;BMP180;28026;48.562;14.440;2024-01-06T05:25:21;92392.00;;;11.10
41593;BMP180;28026;48.562;14.440;2024-01-06T05:27:52;92400.00;;;11.10
41593;BMP180;28026;48.562;14.440;2024-01-06T05:30:23;92399.00;;;11.10
41593;BMP180;28026;48.562;14.440;2024-01-06T05:32:54;92404.00;;;11.20
41593;BMP180;28026;48.562;14.440;2024-01-06T05:35:25;92409.00;;;11.10
41593;BMP180;28026;48.562;14.440;2024-01-06T05:37:56;92410.00;;;11.10
41593;BMP180;28026;48.562;14.440;2024-01-06T05:40:27;92411.00;;;11.10
41593;BMP180;28026;48.562;14.440;2024-01-06T05:42:58;92411.00;;;11.10
41593;BMP180;28026;48.562;14.440;2024-01-06T05:45:28;92420.00;;;11.10
41593;BMP180;28026;48.562;14.440;2024-01-06T05:47:59;92424.00;;;11.10
41593;BMP180;28026;48.562;14.440;2024-01-06T05:50:30;92424.00;;;11.10
41593;BMP180;28026;48.562;14.440;2024-01-06T05:53:01;92434.00;;;11.10
41593;BMP180;28026;48.562;14.440;2024-01-06T05:55:32;92442.00;;;11.20
41593;BMP180;28026;48.562;14.440;2024-01-06T05:58:03;92444.00;;;11.10
41593;BMP180;28026;48.562;14.440;2024-01-06T06:00:34;92445.00;;;11.10
41593;BMP180;28026;48.562;14.440;2024-01-06T06:03:05;92450.00;;;11.10
41593;BMP180;28026;48.562;14.440;2024-01-06T06:05:38;92448.00;;;11.20
41593;BMP180;28026;48.562;14.440;2024-01-06T06:08:09;92457.00;;;11.20
41593;BMP180;28026;48.562;14.440;2024-01-06T06:10:39;92444.00;;;11.10
41593;BMP180;28026;48.562;14.440;2024-01-06T06:13:11;92455.00;;;11.10
41593;BMP180;28026;48.562;14.440;2024-01-06T06:15:42;92463.00;;;11.10
41593;BMP180;28026;48.562;14.440;2024-01-06T06:18:13;92467.00;;;11.10
41593;BMP180;28026;48.562;14.440;2024-01-06T06:20:44;92465.00;;;11.10
41593;BMP180;28026;48.562;14.440;2024-01-06T06:23:15;92469.00;;;11.10
41593;BMP180;28026;48.562;14.440;2024-01-06T06:25:46;92471.00;;;11.10
41593;BMP180;28026;48.562;14.440;2024-01-06T06:28:17;92475.00;;;11.10
41593;BMP180;28026;48.562;14.440;2024-01-06T06:30:47;92480.00;;;11.10
41593;BMP180;28026;48.562;14.440;2024-01-06T06:33:18;92478.00;;;11.00
41593;BMP180;28026;48.562;14.440;2024-01-06T06:35:49;92483.00;;;11.00
41593;BMP180;28026;48.562;14.440;2024-01-06T06:38:20;92485.00;;;11.00
41593;BMP180;28026;48.562;14.440;2024-01-06T06:40:51;92485.00;;;11.00
41593;BMP180;28026;48.562;14.440;2024-01-06T06:43:22;92491.00;;;11.00
41593;BMP180;28026;48.562;14.440;2024-01-06T06:45:53;92495.00;;;11.00
41593;BMP180;28026;48.562;14.440;2024-01-06T06:48:26;92497.00;;;11.00
41593;BMP180;28026;48.562;14.440;2024-01-06T06:50:56;92495.00;;;11.00
41593;BMP180;28026;48.562;14.440;2024-01-06T06:53:27;92501.00;;;11.00
41593;BMP180;28026;48.562;14.440;2024-01-06T06:55:58;92507.00;;;11.00
41593;BMP180;28026;48.562;14.440;2024-01-06T06:58:29;92498.00;;;11.00
41593;BMP180;28026;48.562;14.440;2024-01-06T07:01:00;92498.00;;;11.00
41593;BMP180;28026;48.562;14.440;2024-01-06T07:03:31;92506.00;;;11.00
41593;BMP180;28026;48.562;14.440;2024-01-06T07:06:02;92519.00;;;11.00
41593;BMP180;28026;48.562;14.440;2024-01-06T07:08:33;92520.00;;;11.00
41593;BMP180;28026;48.562;14.440;2024-01-06T07:11:04;92522.00;;;11.00
41593;BMP180;28026;48.562;14.440;2024-01-06T07:13:35;92532.00;;;11.00
41593;BMP180;28026;48.562;14.440;2024-01-06T07:16:06;92528.00;;;11.00
41593;BMP180;28026;48.562;14.440;2024-01-06T07:18:38;92527.00;;;11.00
41593;BMP180;28026;48.562;14.440;2024-01-06T07:21:08;92531.00;;;11.10
41593;BMP180;28026;48.562;14.440;2024-01-06T07:23:39;92532.00;;;11.10
41593;BMP180;28026;48.562;14.440;2024-01-06T07:26:10;92536.00;;;11.10
41593;BMP180;28026;48.562;14.440;2024-01-06T07:28:41;92537.00;;;11.10
41593;BMP180;28026;48.562;14.440;2024-01-06T07:31:12;92545.00;;;11.00
41593;BMP180;28026;48.562;14.440;2024-01-06T07:33:43;92549.00;;;11.00
41593;BMP180;28026;48.562;14.440;2024-01-06T07:36:14;92554.00;;;11.00
41593;BMP180;28026;48.562;14.440;2024-01-06T07:38:45;92548.00;;;11.00
41593;BMP180;28026;48.562;14.440;2024-01-06T07:41:16;92547.00;;;11.00
41593;BMP180;28026;48.562;14.440;2024-01-06T07:43:47;92550.00;;;11.00
41593;BMP180;28026;48.562;14.440;2024-01-06T07:46:18;92550.00;;;11.00
41593;BMP180;28026;48.562;14.440;2024-01-06T07:48:49;92545.00;;;11.00
41593;BMP180;28026;48.562;14.440;2024-01-06T07:51:19;92544.00;;;11.00
41593;BMP180;28026;48.562;14.440;2024-01-06T07:53:50;92552.00;;;11.00
41593;BMP180;28026;48.562;14.440;2024-01-06T07:56:21;92555.00;;;11.00
41593;BMP180;28026;48.562;14.440;2024-01-06T07:58:52;92553.00;;;11.00
41593;BMP180;28026;48.562;14.440;2024-01-06T08:01:23;92560.00;;;11.00
41593;BMP180;28026;48.562;14.440;2024-01-06T08:03:54;92553.00;;;11.00
41593;BMP180;28026;48.562;14.440;2024-01-06T08:06:25;92548.00;;;11.00
41593;BMP180;28026;48.562;14.440;2024-01-06T08:08:56;92554.00;;;11.00
41593;BMP180;28026;48.562;14.440;2024-01-06T08:11:27;92557.00;;;11.00
41593;BMP180;28026;48.562;14.440;2024-01-06T08:13:58;92561.00;;;11.00
41593;BMP180;28026;48.562;14.440;2024-01-06T08:16:29;92563.00;;;11.00
41593;BMP180;28026;48.562;14.440;2024-01-06T08:18:59;92570.00;;;11.00
41593;BMP180;28026;48.562;14.440;2024-01-06T08:21:30;92561.00;;;11.00
41593;BMP180;28026;48.562;14.440;2024-01-06T08:24:01;92572.00;;;11.00
41593;BMP180;28026;48.562;14.440;2024-01-06T08:26:33;92567.00;;;11.00
41593;BMP180;28026;48.562;14.440;2024-01-06T08:29:04;92571.00;;;11.00
41593;BMP180;28026;48.562;14.440;2024-01-06T08:31:34;92573.00;;;11.00
41593;BMP180;28026;48.562;14.440;2024-01-06T08:34:05;92575.00;;;11.00
41593;BMP180;28026;48.562;14.440;2024-01-06T08:36:38;92572.00;;;11.10
41593;BMP180;28026;48.562;14.440;2024-01-06T08:39:09;92582.00;;;11.10
41593;BMP180;28026;48.562;14.440;2024-01-06T08:41:40;92580.00;;;11.10
41593;BMP180;28026;48.562;14.440;2024-01-06T08:44:11;92576.00;;;11.10
41593;BMP180;28026;48.562;14.440;2024-01-06T08:46:41;92601.00;;;11.10
41593;BMP180;28026;48.562;14.440;2024-01-06T08:49:12;92593.00;;;11.20
41593;BMP180;28026;48.562;14.440;2024-01-06T08:51:43;92603.00;;;11.20
41593;BMP180;28026;48.562;14.440;2024-01-06T08:54:14;92603.00;;;11.20
41593;BMP180;28026;48.562;14.440;2024-01-06T08:56:45;92598.00;;;11.30
41593;BMP180;28026;48.562;14.440;2024-01-06T08:59:16;92604.00;;;11.30
41593;BMP180;28026;48.562;14.440;2024-01-06T09:01:47;92603.00;;;11.30
41593;BMP180;28026;48.562;14.440;2024-01-06T09:04:17;92610.00;;;11.30
41593;BMP180;28026;48.562;14.440;2024-01-06T09:06:48;92596.00;;;11.40
41593;BMP180;28026;48.562;14.440;2024-01-06T09:09:21;92609.00;;;11.40
41593;BMP180;28026;48.562;14.440;2024-01-06T09:11:54;92608.00;;;11.40
41593;BMP180;28026;48.562;14.440;2024-01-06T09:14:26;92605.00;;;11.50
41593;BMP180;28026;48.562;14.440;2024-01-06T09:16:56;92610.00;;;11.50
41593;BMP180;28026;48.562;14.440;2024-01-06T09:19:27;92613.00;;;11.50
41593;BMP180;28026;48.562;14.440;2024-01-06T09:21:58;92611.00;;;11.50
41593;BMP180;28026;48.562;14.440;2024-01-06T09:24:29;92619.00;;;11.40
41593;BMP180;28026;48.562;14.440;2024-01-06T09:27:00;92618.00;;;11.50
41593;BMP180;28026;48.562;14.440;2024-01-06T09:29:31;92626.00;;;11.50
41593;BMP180;28026;48.562;14.440;2024-01-06T09:32:02;92625.00;;;11.50
41593;BMP180;28026;48.562;14.440;2024-01-06T09:34:33;92623.00;;;11.60
41593;BMP180;28026;48.562;14.440;2024-01-06T09:37:04;92622.00;;;11.60
41593;BMP180;28026;48.562;14.440;2024-01-06T09:39:34;92621.00;;;11.60
41593;BMP180;28026;48.562;14.440;2024-01-06T09:42:05;92621.00;;;11.60
41593;BMP180;28026;48.562;14.440;2024-01-06T09:44:37;92614.00;;;11.60
41593;BMP180;28026;48.562;14.440;2024-01-06T09:47:12;92622.00;;;11.60
41593;BMP180;28026;48.562;14.440;2024-01-06T09:49:49;92628.00;;;11.60
41593;BMP180;28026;48.562;14.440;2024-01-06T09:52:24;92616.00;;;11.70
41593;BMP180;28026;48.562;14.440;2024-01-06T09:54:59;92624.00;;;11.70
41593;BMP180;28026;48.562;14.440;2024-01-06T09:57:33;92621.00;;;11.70
41593;BMP180;28026;48.562;14.440;2024-01-06T10:00:06;92623.00;;;11.60
41593;BMP180;28026;48.562;14.440;2024-01-06T10:02:39;92622.00;;;11.60
41593;BMP180;28026;48.562;14.440;2024-01-06T10:05:12;92618.00;;;11.60
41593;BMP180;28026;48.562;14.440;2024-01-06T10:07:45;92625.00;;;11.70
41593;BMP180;28026;48.562;14.440;2024-01-06T10:10:17;92615.00;;;11.70
41593;BMP180;28026;48.562;14.440;2024-01-06T10:12:47;92612.00;;;11.70
41593;BMP180;28026;48.562;14.440;2024-01-06T10:15:20;92616.00;;;11.80
41593;BMP180;28026;48.562;14.440;2024-01-06T10:17:53;92618.00;;;11.80
41593;BMP180;28026;48.562;14.440;2024-01-06T10:20:25;92611.00;;;11.80
41593;BMP180;28026;48.562;14.440;2024-01-06T10:23:05;92613.00;;;11.80
41593;BMP180;28026;48.562;14.440;2024-01-06T10:25:37;92611.00;;;11.90
41593;BMP180;28026;48.562;14.440;2024-01-06T10:28:12;92623.00;;;11.90
41593;BMP180;28026;48.562;14.440;2024-01-06T10:30:45;92618.00;;;12.00
41593;BMP180;28026;48.562;14.440;2024-01-06T10:33:16;92606.00;;;12.00
41593;BMP180;28026;48.562;14.440;2024-01-06T10:35:48;92613.00;;;12.00
41593;BMP180;28026;48.562;14.440;2024-01-06T10:38:26;92610.00;;;12.00
41593;BMP180;28026;48.562;14.440;2024-01-06T10:41:04;92617.00;;;11.90
41593;BMP180;28026;48.562;14.440;2024-01-06T10:43:38;92614.00;;;12.00
41593;BMP180;28026;48.562;14.440;2024-01-06T10:46:15;92605.00;;;12.00
41593;BMP180;28026;48.562;14.440;2024-01-06T10:48:47;92599.00;;;12.00
41593;BMP180;28026;48.562;14.440;2024-01-06T10:51:20;92606.00;;;12.00
41593;BMP180;28026;48.562;14.440;2024-01-06T10:53:53;92601.00;;;12.00
41593;BMP180;28026;48.562;14.440;2024-01-06T10:56:25;92598.00;;;12.00
41593;BMP180;28026;48.562;14.440;2024-01-06T10:58:57;92605.00;;;12.00
41593;BMP180;28026;48.562;14.440;2024-01-06T11:01:30;92598.00;;;12.10
41593;BMP180;28026;48.562;14.440;2024-01-06T11:04:02;92594.00;;;12.10
41593;BMP180;28026;48.562;14.440;2024-01-06T11:06:37;92595.00;;;12.10
41593;BMP180;28026;48.562;14.440;2024-01-06T11:09:29;92587.00;;;12.20
41593;BMP180;28026;48.562;14.440;2024-01-06T11:12:06;92582.00;;;12.20
41593;BMP180;28026;48.562;14.440;2024-01-06T11:14:38;92584.00;;;12.20
41593;BMP180;28026;48.562;14.440;2024-01-06T11:17:09;92580.00;;;12.20
41593;BMP180;28026;48.562;14.440;2024-01-06T11:19:45;92584.00;;;12.20
41593;BMP180;28026;48.562;14.440;2024-01-06T11:22:29;92588.00;;;12.20
41593;BMP180;28026;48.562;14.440;2024-01-06T11:25:08;92585.00;;;12.20
41593;BMP180;28026;48.562;14.440;2024-01-06T11:27:45;92581.00;;;12.20
41593;BMP180;28026;48.562;14.440;2024-01-06T11:30:27;92578.00;;;12.20
41593;BMP180;28026;48.562;14.440;2024-01-06T11:33:04;92574.00;;;12.10
41593;BMP180;28026;48.562;14.440;2024-01-06T11:35:37;92576.00;;;12.10
41593;BMP180;28026;48.562;14.440;2024-01-06T11:38:10;92562.00;;;12.10
41593;BMP180;28026;48.562;14.440;2024-01-06T11:40:43;92574.00;;;12.10
41593;BMP180;28026;48.562;14.440;2024-01-06T11:43:14;92570.00;;;12.10
41593;BMP180;28026;48.562;14.440;2024-01-06T11:45:51;92568.00;;;12.20
41593;BMP180;28026;48.562;14.440;2024-01-06T11:48:25;92571.00;;;12.20
41593;BMP180;28026;48.562;14.440;2024-01-06T11:51:01;92581.00;;;12.10
41593;BMP180;28026;48.562;14.440;2024-01-06T11:53:33;92572.00;;;12.20
41593;BMP180;28026;48.562;14.440;2024-01-06T11:56:05;92571.00;;;12.10
41593;BMP180;28026;48.562;14.440;2024-01-06T11:58:39;92567.00;;;12.10
41593;BMP180;28026;48.562;14.440;2024-01-06T12:01:11;92565.00;;;12.10
41593;BMP180;28026;48.562;14.440;2024-01-06T12:03:41;92564.00;;;12.00
41593;BMP180;28026;48.562;14.440;2024-01-06T12:06:12;92564.00;;;12.10
41593;BMP180;28026;48.562;14.440;2024-01-06T12:08:43;92560.00;;;12.10
41593;BMP180;28026;48.562;14.440;2024-01-06T12:11:17;92558.00;;;12.00
41593;BMP180;28026;48.562;14.440;2024-01-06T12:13:51;92561.00;;;12.00
41593;BMP180;28026;48.562;14.440;2024-01-06T12:16:22;92561.00;;;12.00
41593;BMP180;28026;48.562;14.440;2024-01-06T12:18:58;92560.00;;;11.90
41593;BMP180;28026;48.562;14.440;2024-01-06T12:21:31;92555.00;;;11.90
41593;BMP180;28026;48.562;14.440;2024-01-06T12:24:16;92557.00;;;11.90
41593;BMP180;28026;48.562;14.440;2024-01-06T12:26:50;92554.00;;;11.80
41593;BMP180;28026;48.562;14.440;2024-01-06T12:29:22;92560.00;;;11.80
41593;BMP180;28026;48.562;14.440;2024-01-06T12:31:53;92549.00;;;11.80
41593;BMP180;28026;48.562;14.440;2024-01-06T12:34:24;92549.00;;;11.80
41593;BMP180;28026;48.562;14.440;2024-01-06T12:36:56;92559.00;;;11.80
41593;BMP180;28026;48.562;14.440;2024-01-06T12:39:28;92549.00;;;11.80
41593;BMP180;28026;48.562;14.440;2024-01-06T12:42:01;92543.00;;;11.80
41593;BMP180;28026;48.562;14.440;2024-01-06T12:44:32;92564.00;;;11.70
41593;BMP180;28026;48.562;14.440;2024-01-06T12:47:06;92564.00;;;11.70
41593;BMP180;28026;48.562;14.440;2024-01-06T12:49:37;92566.00;;;11.70
41593;BMP180;28026;48.562;14.440;2024-01-06T12:52:08;92561.00;;;11.70
41593;BMP180;28026;48.562;14.440;2024-01-06T12:54:39;92565.00;;;11.70
41593;BMP180;28026;48.562;14.440;2024-01-06T12:57:11;92568.00;;;11.70
41593;BMP180;28026;48.562;14.440;2024-01-06T12:59:42;92567.00;;;11.70
41593;BMP180;28026;48.562;14.440;2024-01-06T13:02:13;92565.00;;;11.70
41593;BMP180;28026;48.562;14.440;2024-01-06T13:04:44;92570.00;;;11.80
41593;BMP180;28026;48.562;14.440;2024-01-06T13:07:15;92573.00;;;11.80
41593;BMP180;28026;48.562;14.440;2024-01-06T13:09:46;92565.00;;;11.80
41593;BMP180;28026;48.562;14.440;2024-01-06T13:12:17;92570.00;;;11.80
41593;BMP180;28026;48.562;14.440;2024-01-06T13:14:49;92570.00;;;11.80
41593;BMP180;28026;48.562;14.440;2024-01-06T13:17:21;92579.00;;;11.80
41593;BMP180;28026;48.562;14.440;2024-01-06T13:19:52;92574.00;;;11.90
41593;BMP180;28026;48.562;14.440;2024-01-06T13:22:22;92578.00;;;11.90
41593;BMP180;28026;48.562;14.440;2024-01-06T13:24:53;92572.00;;;11.90
41593;BMP180;28026;48.562;14.440;2024-01-06T13:27:28;92580.00;;;11.90
41593;BMP180;28026;48.562;14.440;2024-01-06T13:29:59;92577.00;;;12.00
41593;BMP180;28026;48.562;14.440;2024-01-06T13:32:30;92581.00;;;12.00
41593;BMP180;28026;48.562;14.440;2024-01-06T13:35:01;92588.00;;;12.00
41593;BMP180;28026;48.562;14.440;2024-01-06T13:37:34;92577.00;;;12.00
41593;BMP180;28026;48.562;14.440;2024-01-06T13:40:06;92582.00;;;12.00
41593;BMP180;28026;48.562;14.440;2024-01-06T13:42:38;92578.00;;;12.00
41593;BMP180;28026;48.562;14.440;2024-01-06T13:45:09;92578.00;;;12.00
41593;BMP180;28026;48.562;14.440;2024-01-06T13:47:40;92580.00;;;12.00
41593;BMP180;28026;48.562;14.440;2024-01-06T13:50:19;92584.00;;;12.00
41593;BMP180;28026;48.562;14.440;2024-01-06T13:52:50;92581.00;;;12.10
41593;BMP180;28026;48.562;14.440;2024-01-06T13:55:21;92578.00;;;12.10
41593;BMP180;28026;48.562;14.440;2024-01-06T13:57:51;92582.00;;;12.10
41593;BMP180;28026;48.562;14.440;2024-01-06T14:00:22;92581.00;;;12.10
41593;BMP180;28026;48.562;14.440;2024-01-06T14:02:53;92586.00;;;12.10
41593;BMP180;28026;48.562;14.440;2024-01-06T14:05:25;92581.00;;;12.10
41593;BMP180;28026;48.562;14.440;2024-01-06T14:07:56;92588.00;;;12.10
41593;BMP180;28026;48.562;14.440;2024-01-06T14:10:27;92587.00;;;12.10
41593;BMP180;28026;48.562;14.440;2024-01-06T14:12:58;92593.00;;;12.10
41593;BMP180;28026;48.562;14.440;2024-01-06T14:15:28;92589.00;;;12.10
41593;BMP180;28026;48.562;14.440;2024-01-06T14:18:03;92586.00;;;12.10
41593;BMP180;28026;48.562;14.440;2024-01-06T14:20:34;92599.00;;;12.10